createdAt,value
2023-03-26T00:04:04.580Z,96767.91
2023-03-26T00:08:08.889Z,96772.66
2023-03-26T00:12:11.623Z,96777.59
2023-03-26T00:16:16.685Z,96803.44
2023-03-26T00:20:21.227Z,96798.69
2023-03-26T00:24:29.450Z,96802.81
2023-03-26T00:28:32.111Z,96808.19
2023-03-26T00:32:34.943Z,96796.81
2023-03-26T00:36:38.907Z,96794.56
2023-03-26T00:40:44.076Z,96797.25
2023-03-26T00:44:46.702Z,96807.19
2023-03-26T00:48:50.666Z,96794.34
2023-03-26T00:52:55.874Z,96792.09
2023-03-26T00:56:58.567Z,96804.69
2023-03-26T01:01:03.722Z,96800.13
2023-03-26T01:05:42.724Z,96798.91
2023-03-26T01:09:50.391Z,96799.50
2023-03-26T01:13:56.977Z,96792.06
2023-03-26T01:17:59.571Z,96787.72
2023-03-26T01:22:02.749Z,96796.81
2023-03-26T01:26:14.546Z,96801.34
2023-03-26T01:30:26.401Z,96793.53
2023-03-26T01:34:37.360Z,96798.28
2023-03-26T01:38:46.750Z,96811.09
2023-03-26T01:42:57.768Z,96794.53
2023-03-26T01:47:01.644Z,96788.34
2023-03-26T01:51:04.877Z,96794.75
2023-03-26T01:55:11.690Z,96787.72
2023-03-26T01:59:33.528Z,96787.72
2023-03-26T02:03:43.109Z,96786.47
2023-03-26T02:07:53.918Z,96780.28
2023-03-26T02:11:57.040Z,96772.44
2023-03-26T02:16:03.526Z,96778.22
2023-03-26T02:20:06.834Z,96779.03
2023-03-26T02:24:10.045Z,96773.03
2023-03-26T02:28:12.669Z,96782.16
2023-03-26T02:32:19.298Z,96775.94
2023-03-26T02:36:27.500Z,96774.47
2023-03-26T02:40:30.278Z,96767.69
2023-03-26T02:44:32.952Z,96754.44
2023-03-26T02:48:36.934Z,96757.94
2023-03-26T02:52:39.641Z,96753.16
2023-03-26T02:56:42.266Z,96747.16
2023-03-26T03:00:44.986Z,96748.41
2023-03-26T03:04:48.972Z,96745.09
2023-03-26T03:08:53.943Z,96727.56
2023-03-26T03:12:56.629Z,96724.88
2023-03-26T03:16:59.291Z,96725.25
2023-03-26T03:21:03.470Z,96731.44
2023-03-26T03:25:09.141Z,96722.34
2023-03-26T03:29:12.106Z,96719.06
2023-03-26T03:33:14.741Z,96732.28
2023-03-26T03:37:19.215Z,96716.56
2023-03-26T03:41:21.863Z,96721.09
2023-03-26T03:45:24.548Z,96726.47
2023-03-26T03:49:27.197Z,96721.53
2023-03-26T03:53:31.427Z,96724.19
2023-03-26T03:57:35.114Z,96712.41
2023-03-26T04:01:37.773Z,96708.47
2023-03-26T04:05:40.576Z,96703.31
2023-03-26T04:09:44.642Z,96686.59
2023-03-26T04:13:47.304Z,96682.84
2023-03-26T04:17:52.131Z,96687.81
2023-03-26T04:21:55.373Z,96696.88
2023-03-26T04:26:04.175Z,96683.25
2023-03-26T04:30:10.058Z,96678.94
2023-03-26T04:34:24.200Z,96683.88
2023-03-26T04:38:27.249Z,96691.69
2023-03-26T04:42:33.337Z,96685.06
2023-03-26T04:46:36.030Z,96677.63
2023-03-26T04:50:38.744Z,96679.50
2023-03-26T04:54:44.059Z,96682.13
2023-03-26T04:58:50.330Z,96672.22
2023-03-26T05:02:54.153Z,96679.63
2023-03-26T05:06:58.966Z,96675.72
2023-03-26T05:11:01.641Z,96673.03
2023-03-26T05:15:06.863Z,96673.84
2023-03-26T05:19:09.691Z,96672.63
2023-03-26T05:23:12.356Z,96662.53
2023-03-26T05:27:16.842Z,96660.25
2023-03-26T05:31:22.180Z,96656.31
2023-03-26T05:35:24.842Z,96651.56
2023-03-26T05:39:31.901Z,96648.25
2023-03-26T05:43:35.369Z,96655.06
2023-03-26T05:47:39.634Z,96650.09
2023-03-26T05:51:42.303Z,96644.97
2023-03-26T05:55:46.773Z,96648.72
2023-03-26T05:59:49.459Z,96636.31
2023-03-26T06:03:53.814Z,96627.50
2023-03-26T06:07:56.546Z,96617.00
2023-03-26T06:11:59.177Z,96610.81
2023-03-26T06:16:02.240Z,96606.28
2023-03-26T06:20:09.489Z,96607.34
2023-03-26T06:24:12.345Z,96599.31
2023-03-26T06:28:15.906Z,96603.00
2023-03-26T06:32:20.470Z,96581.94
2023-03-26T06:36:25.027Z,96590.63
2023-03-26T06:40:27.777Z,96585.47
2023-03-26T06:44:30.418Z,96580.31
2023-03-26T06:48:33.122Z,96572.47
2023-03-26T06:52:37.126Z,96569.38
2023-03-26T06:56:41.217Z,96562.13
2023-03-26T07:00:43.998Z,96559.03
2023-03-26T07:04:46.704Z,96561.50
2023-03-26T07:08:50.756Z,96544.13
2023-03-26T07:12:54.435Z,96554.47
2023-03-26T07:16:58.502Z,96557.34
2023-03-26T07:21:01.998Z,96556.53
2023-03-26T07:25:07.661Z,96540.84
2023-03-26T07:29:17.600Z,96522.44
2023-03-26T07:33:28.946Z,96522.88
2023-03-26T07:37:41.840Z,96521.81
2023-03-26T07:41:48.684Z,96517.00
2023-03-26T07:45:51.899Z,96517.78
2023-03-26T07:49:57.821Z,96513.63
2023-03-26T07:54:04.017Z,96515.44
2023-03-26T07:58:22.228Z,96504.66
2023-03-26T08:02:50.294Z,96493.34
2023-03-26T08:06:57.182Z,96488.00
2023-03-26T08:11:11.592Z,96469.78
2023-03-26T08:15:22.270Z,96475.09
2023-03-26T08:19:49.092Z,96465.81
2023-03-26T08:24:01.755Z,96457.59
2023-03-26T08:28:11.920Z,96455.72
2023-03-26T08:32:18.203Z,96441.59
2023-03-26T08:36:20.872Z,96442.66
2023-03-26T08:41:05.873Z,96435.81
2023-03-26T08:45:42.966Z,96429.84
2023-03-26T08:50:27.650Z,96430.69
2023-03-26T08:54:57.197Z,96415.97
2023-03-26T08:59:47.639Z,96410.50
2023-03-26T09:04:30.786Z,96380.69
2023-03-26T09:09:00.543Z,96376.56
2023-03-26T09:13:23.802Z,96379.03
2023-03-26T09:17:59.794Z,96364.44
2023-03-26T09:22:29.622Z,96349.66
2023-03-26T09:26:47.319Z,96343.34
2023-03-26T09:31:10.209Z,96340.66
2023-03-26T09:35:44.826Z,96326.22
2023-03-26T09:40:01.525Z,96314.28
2023-03-26T09:44:41.644Z,96317.66
2023-03-26T09:49:08.706Z,96290.94
2023-03-26T09:53:26.543Z,96290.56
2023-03-26T09:57:49.827Z,96292.78
2023-03-26T10:02:06.936Z,96293.97
2023-03-26T10:06:36.533Z,96299.38
2023-03-26T10:10:47.165Z,96297.75
2023-03-26T10:14:57.875Z,96295.75
2023-03-26T10:19:28.940Z,96280.03
2023-03-26T10:23:47.555Z,96274.84
2023-03-26T10:28:01.393Z,96295.84
2023-03-26T10:32:17.947Z,96300.38
2023-03-26T10:36:29.990Z,96301.28
2023-03-26T10:40:43.147Z,96297.69
2023-03-26T10:45:26.026Z,96288.81
2023-03-26T10:50:02.536Z,96304.72
2023-03-26T10:54:16.215Z,96303.59
2023-03-26T10:58:25.137Z,96305.44
2023-03-26T11:02:31.138Z,96311.66
2023-03-26T11:06:41.244Z,96295.19
2023-03-26T11:10:55.951Z,96297.44
2023-03-26T11:15:08.931Z,96297.97
2023-03-26T11:19:21.929Z,96304.56
2023-03-26T11:23:36.914Z,96298.34
2023-03-26T11:27:56.917Z,96289.53
2023-03-26T11:32:05.100Z,96294.00
2023-03-26T11:36:10.908Z,96298.34
2023-03-26T11:40:20.154Z,96291.75
2023-03-26T11:44:29.036Z,96286.81
2023-03-26T11:48:34.535Z,96271.50
2023-03-26T11:52:37.445Z,96272.94
2023-03-26T11:57:05.246Z,96262.78
2023-03-26T12:01:17.252Z,96265.31
2023-03-26T12:05:22.261Z,96245.16
2023-03-26T12:09:25.848Z,96252.97
2023-03-26T12:13:36.526Z,96232.63
2023-03-26T12:17:42.275Z,96197.75
2023-03-26T12:21:46.869Z,96192.06
2023-03-26T12:26:12.169Z,96194.59
2023-03-26T12:30:20.886Z,96193.03
2023-03-26T12:34:34.956Z,96185.59
2023-03-26T12:38:39.172Z,96175.59
2023-03-26T12:44:48.895Z,96183.31
2023-03-26T12:47:58.451Z,96176.34
2023-03-26T12:51:45.735Z,96173.88
2023-03-26T12:55:58.643Z,96168.31
2023-03-26T13:00:10.790Z,96149.94
2023-03-26T13:04:34.298Z,96151.09
2023-03-26T13:09:08.238Z,96152.84
2023-03-26T13:13:50.308Z,96136.97
2023-03-26T13:18:09.316Z,96129.88
2023-03-26T13:22:19.451Z,96119.41
2023-03-26T13:26:38.718Z,96097.56
2023-03-26T13:30:48.758Z,96094.63
2023-03-26T13:35:10.122Z,96102.00
2023-03-26T13:39:27.626Z,96104.47
2023-03-26T13:43:39.035Z,96091.59
2023-03-26T13:47:46.110Z,96074.03
2023-03-26T13:51:53.152Z,96072.59
2023-03-26T13:55:58.609Z,96074.22
2023-03-26T14:00:06.711Z,96058.94
2023-03-26T14:04:19.386Z,96068.38
2023-03-26T14:08:31.689Z,96053.47
2023-03-26T14:12:55.106Z,96068.78
2023-03-26T14:17:03.310Z,96063.38
2023-03-26T14:21:35.808Z,96047.66
2023-03-26T14:25:57.961Z,96031.56
2023-03-26T14:30:34.820Z,96021.72
2023-03-26T14:34:52.623Z,96023.06
2023-03-26T14:39:23.835Z,96024.19
2023-03-26T14:44:00.951Z,96002.13
2023-03-26T14:48:39.126Z,95995.50
2023-03-26T14:52:48.803Z,95990.44
2023-03-26T14:57:21.536Z,95998.06
2023-03-26T15:01:28.729Z,95977.88
2023-03-26T15:05:48.858Z,95973.53
2023-03-26T15:10:26.364Z,95993.75
2023-03-26T15:14:55.005Z,95993.47
2023-03-26T15:19:47.314Z,95987.97
2023-03-26T15:24:21.902Z,95998.41
2023-03-26T15:28:59.114Z,95999.84
2023-03-26T15:33:45.017Z,95991.53
2023-03-26T15:38:38.538Z,96016.72
2023-03-26T15:42:55.921Z,96023.50
2023-03-26T15:47:17.035Z,96020.03
2023-03-26T15:51:47.542Z,96024.09
2023-03-26T15:56:01.862Z,96004.72
2023-03-26T16:00:23.152Z,95998.44
2023-03-26T16:04:50.771Z,96004.59
2023-03-26T16:09:07.936Z,95993.22
2023-03-26T16:13:37.719Z,95992.78
2023-03-26T16:18:22.776Z,95997.75
2023-03-26T16:22:45.735Z,96002.78
2023-03-26T16:27:00.979Z,95987.09
2023-03-26T16:31:36.867Z,95995.59
2023-03-26T16:36:01.915Z,95986.72
2023-03-26T16:40:34.500Z,95991.19
2023-03-26T16:44:46.136Z,95987.72
2023-03-26T16:48:56.457Z,95981.41
2023-03-26T16:53:13.363Z,95980.56
2023-03-26T16:57:28.326Z,95982.28
2023-03-26T17:01:41.547Z,95985.38
2023-03-26T17:06:06.590Z,95985.31
2023-03-26T17:10:15.755Z,95977.47
2023-03-26T17:14:36.718Z,95970.75
2023-03-26T17:18:48.300Z,95956.91
2023-03-26T17:22:57.793Z,95955.97
2023-03-26T17:27:08.521Z,95971.72
2023-03-26T17:31:21.165Z,95965.75
2023-03-26T17:35:38.633Z,95964.03
2023-03-26T17:40:38.711Z,95975.84
2023-03-26T17:44:44.720Z,95978.97
2023-03-26T17:48:54.957Z,95962.91
2023-03-26T17:52:59.478Z,95962.50
2023-03-26T17:57:07.805Z,95974.63
2023-03-26T18:01:22.185Z,95976.56
2023-03-26T18:05:30.389Z,95972.38
2023-03-26T18:09:48.179Z,95972.78
2023-03-26T18:14:24.839Z,95977.75
2023-03-26T18:18:33.413Z,95992.78
2023-03-26T18:22:37.588Z,95991.34
2023-03-26T18:26:42.729Z,95994.75
2023-03-26T18:30:49.647Z,95992.69
2023-03-26T18:34:57.950Z,95988.78
2023-03-26T18:39:04.711Z,95987.28
2023-03-26T18:43:12.360Z,95994.19
2023-03-26T18:47:17.508Z,95987.88
2023-03-26T18:51:23.735Z,95994.78
2023-03-26T18:55:30.255Z,95995.59
2023-03-26T18:59:41.018Z,96004.34
2023-03-26T19:03:44.690Z,95997.19
2023-03-26T19:07:48.701Z,95989.84
2023-03-26T19:11:57.664Z,95999.09
2023-03-26T19:16:03.234Z,95994.19
2023-03-26T19:20:09.915Z,95990.66
2023-03-26T19:24:14.810Z,95982.81
2023-03-26T19:28:23.721Z,95988.81
2023-03-26T19:32:32.270Z,96007.16
2023-03-26T19:36:37.023Z,95998.50
2023-03-26T19:40:43.333Z,95985.03
2023-03-26T19:44:47.562Z,95994.38
2023-03-26T19:48:53.348Z,95996.44
2023-03-26T19:53:16.899Z,95995.22
2023-03-26T19:57:21.750Z,95997.63
2023-03-26T20:01:28.723Z,95996.38
2023-03-26T20:05:34.967Z,96000.44
2023-03-26T20:09:37.757Z,96002.78
2023-03-26T20:13:40.617Z,96006.28
2023-03-26T20:17:44.680Z,96006.06
2023-03-26T20:21:47.381Z,96014.19
2023-03-26T20:25:54.436Z,96008.09
2023-03-26T20:29:57.542Z,96011.00
2023-03-26T20:34:01.851Z,96019.09
2023-03-26T20:38:05.456Z,96027.03
2023-03-26T20:42:08.329Z,96031.44
2023-03-26T20:46:17.630Z,96038.69
2023-03-26T20:50:24.626Z,96048.31
2023-03-26T20:54:29.649Z,96036.38
2023-03-26T20:58:32.564Z,96034.81
2023-03-26T21:02:35.489Z,96040.81
2023-03-26T21:06:39.550Z,96034.25
2023-03-26T21:10:43.772Z,96028.16
2023-03-26T21:14:46.927Z,96020.97
2023-03-26T21:18:50.590Z,96029.84
2023-03-26T21:23:00.335Z,96034.38
2023-03-26T21:27:12.840Z,96033.13
2023-03-26T21:31:19.604Z,96032.34
2023-03-26T21:35:23.398Z,96044.28
2023-03-26T21:39:28.894Z,96035.25
2023-03-26T21:43:31.816Z,96043.09
2023-03-26T21:47:35.343Z,96042.69
2023-03-26T21:51:38.732Z,96047.25
2023-03-26T21:55:55.885Z,96051.22
2023-03-26T22:00:14.672Z,96048.94
2023-03-26T22:04:25.580Z,96056.19
2023-03-26T22:08:31.569Z,96049.00
2023-03-26T22:12:36.188Z,96052.28
2023-03-26T22:16:38.842Z,96047.34
2023-03-26T22:20:42.650Z,96046.75
2023-03-26T22:24:45.347Z,96053.78
2023-03-26T22:28:50.166Z,96062.84
2023-03-26T22:32:53.403Z,96057.94
2023-03-26T22:36:56.299Z,96059.16
2023-03-26T22:40:59.346Z,96062.09
2023-03-26T22:45:04.086Z,96066.00
2023-03-26T22:49:07.429Z,96058.41
2023-03-26T22:53:10.380Z,96063.19
2023-03-26T22:57:13.082Z,96053.25
2023-03-26T23:01:20.279Z,96060.50
2023-03-26T23:05:23.568Z,96070.97
2023-03-26T23:09:26.380Z,96062.56
2023-03-26T23:13:29.059Z,96065.50
2023-03-26T23:17:35.525Z,96065.50
2023-03-26T23:21:38.300Z,96055.25
2023-03-26T23:25:41.486Z,96070.72
2023-03-26T23:29:45.828Z,96067.03
2023-03-26T23:33:50.440Z,96075.94
2023-03-26T23:37:53.993Z,96071.66
2023-03-26T23:41:56.706Z,96070.84
2023-03-26T23:45:59.879Z,96075.78
2023-03-26T23:50:05.735Z,96068.00
2023-03-26T23:54:08.915Z,96070.69
2023-03-26T23:58:12.037Z,96061.41
